Time;durP1;ratioP1;P1;durP2;ratioP2;P2;SDS_P1;SDS_P2;PMS_P1;PMS_P2;Temp;Humidity;BMP_temperature;BMP_pressure;BME280_temperature;BME280_humidity;BME280_pressure;Samples;Min_cycle;Max_cycle;Signal;HPM_P1;HPM_P2
2022/07/02 00:02:13;;;;;;;0.82;0.70;;;;;;;23.42;41.65;102118.97;5064729;28;20024;-61
2022/07/02 00:04:47;;;;;;;1.25;1.00;;;;;;;23.22;41.82;102079.59;5064988;28;20025;-61
2022/07/02 00:07:12;;;;;;;2.58;1.13;;;;;;;23.41;41.55;102115.41;5064743;28;20029;-61
2022/07/02 00:09:37;;;;;;;3.15;0.88;;;;;;;23.38;41.83;102107.59;5065897;28;20090;-61
2022/07/02 00:12:03;;;;;;;3.28;1.00;;;;;;;23.16;41.90;102073.00;5083966;28;20031;-62
2022/07/02 00:14:28;;;;;;;1.80;0.60;;;;;;;23.37;41.62;102107.78;5086012;28;20024;-61
2022/07/02 00:16:56;;;;;;;1.10;0.65;;;;;;;23.36;41.58;102108.75;5084373;28;20462;-60
2022/07/02 00:19:22;;;;;;;2.10;0.63;;;;;;;23.34;41.64;102108.09;5085672;28;20032;-61
2022/07/02 00:21:48;;;;;;;1.65;0.70;;;;;;;23.13;41.92;102073.31;5083577;28;20025;-61
2022/07/02 00:24:13;;;;;;;2.10;0.75;;;;;;;23.12;41.61;102077.91;5067889;28;20409;-61
2022/07/02 00:26:40;;;;;;;1.67;0.50;;;;;;;23.33;41.99;102109.13;5085548;28;20032;-61
2022/07/02 00:29:11;;;;;;;2.50;0.77;;;;;;;23.31;41.77;102114.69;5084640;28;20054;-61
2022/07/02 00:31:38;;;;;;;2.13;0.60;;;;;;;23.32;41.93;102118.25;5083447;28;20027;-61
2022/07/02 00:34:04;;;;;;;1.65;0.98;;;;;;;23.31;41.78;102113.84;5084407;28;20547;-61
2022/07/02 00:36:31;;;;;;;2.83;0.90;;;;;;;23.10;41.94;102089.91;5084917;28;20024;-61
2022/07/02 00:38:57;;;;;;;1.38;0.70;;;;;;;23.06;41.69;102081.25;5084546;28;20021;-61
2022/07/02 00:41:22;;;;;;;2.00;0.90;;;;;;;23.27;41.95;102113.34;5083762;28;20052;-61
2022/07/02 00:43:49;;;;;;;1.92;0.77;;;;;;;23.27;41.74;102109.78;5084339;28;20081;-61
2022/07/02 00:46:14;;;;;;;3.05;0.90;;;;;;;23.25;41.61;102104.53;5085443;28;20025;-61
2022/07/02 00:48:41;;;;;;;2.10;1.00;;;;;;;23.24;41.79;102102.84;5085420;28;20538;-61
2022/07/02 00:51:06;;;;;;;1.38;0.70;;;;;;;23.23;41.66;102098.41;5084725;28;20032;-61
2022/07/02 00:53:31;;;;;;;3.15;1.00;;;;;;;23.20;41.91;102102.31;5083986;28;20024;-61
2022/07/02 00:55:57;;;;;;;1.42;0.77;;;;;;;23.21;41.94;102103.16;5085287;28;20047;-62
2022/07/02 00:58:23;;;;;;;1.63;0.80;;;;;;;23.01;41.88;102078.22;5084203;28;20080;-61
2022/07/02 01:00:49;;;;;;;1.20;0.77;;;;;;;23.20;41.58;102102.31;5084059;28;20024;-61
2022/07/02 01:03:17;;;;;;;1.15;0.85;;;;;;;22.97;41.67;102065.16;5071896;28;20046;-61
2022/07/02 01:05:44;;;;;;;1.83;0.85;;;;;;;23.19;41.89;102099.75;5080830;28;20024;-61
2022/07/02 01:10:53;;;;;;;1.90;1.10;;;;;;;23.00;41.88;102071.09;5072894;28;20504;-61
2022/07/02 01:13:20;;;;;;;2.67;1.00;;;;;;;23.17;41.66;102093.66;5084777;28;20024;-61
2022/07/02 01:15:45;;;;;;;2.17;0.98;;;;;;;23.17;41.69;102088.25;5066930;28;20017;-61
2022/07/02 01:18:17;;;;;;;1.38;0.80;;;;;;;23.16;41.72;102090.13;5085349;28;20039;-61
2022/07/02 01:20:43;;;;;;;2.10;0.90;;;;;;;23.12;41.65;102088.75;5065619;28;20029;-61
2022/07/02 01:23:08;;;;;;;2.13;1.00;;;;;;;23.14;41.72;102078.56;5063545;28;20028;-61
2022/07/02 01:25:34;;;;;;;1.85;0.80;;;;;;;22.93;41.95;102051.06;5064759;28;20029;-61
2022/07/02 01:27:59;;;;;;;2.85;1.30;;;;;;;23.13;41.79;102085.00;5063697;28;20040;-61
2022/07/02 01:30:24;;;;;;;1.30;0.80;;;;;;;23.13;41.65;102084.16;5063595;28;20036;-61
2022/07/02 01:32:50;;;;;;;1.25;0.90;;;;;;;22.90;41.94;102049.56;5064643;28;20013;-61
2022/07/02 01:35:15;;;;;;;4.07;1.25;;;;;;;23.11;41.90;102081.63;5064752;28;20029;-61
2022/07/02 01:37:40;;;;;;;1.85;0.90;;;;;;;23.11;41.81;102083.50;5082739;28;20070;-61
2022/07/02 01:40:06;;;;;;;2.92;1.25;;;;;;;22.87;41.73;102044.44;5084717;28;20614;-61
2022/07/02 01:42:32;;;;;;;1.92;1.45;;;;;;;23.06;41.92;102088.56;5086012;28;20042;-61
2022/07/02 01:44:57;;;;;;;2.20;1.05;;;;;;;23.09;42.13;102088.22;5087586;28;20028;-61
2022/07/02 01:47:22;;;;;;;1.25;0.85;;;;;;;23.08;41.87;102092.81;5070521;28;20044;-61
2022/07/02 01:49:48;;;;;;;2.35;1.13;;;;;;;23.06;41.81;102083.97;5087409;28;20070;-61
2022/07/02 01:52:14;;;;;;;2.20;0.93;;;;;;;23.07;41.92;102096.56;5086590;28;20036;-61
2022/07/02 01:54:40;;;;;;;2.40;1.10;;;;;;;23.05;41.74;102089.59;5087295;28;20020;-61
2022/07/02 01:57:06;;;;;;;3.03;1.20;;;;;;;23.06;41.98;102092.13;5087202;28;20100;-61
2022/07/02 01:59:32;;;;;;;2.28;1.17;;;;;;;23.05;42.02;102097.72;5070337;28;20021;-61
2022/07/02 02:01:57;;;;;;;1.63;0.90;;;;;;;22.84;41.91;102057.47;5069945;28;20036;-61
2022/07/02 02:04:22;;;;;;;3.10;1.33;;;;;;;23.03;42.01;102097.06;5088498;28;20025;-61
2022/07/02 02:06:48;;;;;;;2.05;0.90;;;;;;;22.81;41.87;102060.50;5086733;28;20052;-61
2022/07/02 02:09:13;;;;;;;1.23;0.90;;;;;;;23.03;41.89;102097.91;5088161;28;20038;-61
2022/07/02 02:11:38;;;;;;;2.00;0.90;;;;;;;23.02;41.82;102092.63;5069950;28;20028;-61
2022/07/02 02:14:04;;;;;;;2.60;0.90;;;;;;;22.99;42.09;102080.25;5068146;28;20045;-61
2022/07/02 02:16:30;;;;;;;1.75;0.77;;;;;;;23.01;42.09;102085.50;5066811;28;20523;-61
2022/07/02 02:18:57;;;;;;;2.40;1.05;;;;;;;23.00;42.08;102089.25;5050119;28;20051;-61
2022/07/02 02:21:26;;;;;;;2.60;1.08;;;;;;;22.99;41.86;102091.13;5049252;28;20025;-61
2022/07/02 02:23:53;;;;;;;2.92;1.15;;;;;;;22.76;42.08;102057.47;5066745;28;20052;-61
2022/07/02 02:26:19;;;;;;;2.17;1.30;;;;;;;22.96;41.76;102088.72;5067727;28;20064;-61
2022/07/02 02:28:44;;;;;;;3.00;1.27;;;;;;;22.73;41.99;102049.69;5067916;28;20036;-61
2022/07/02 02:31:09;;;;;;;2.47;1.15;;;;;;;22.70;42.12;102040.00;5067536;28;20064;-61
2022/07/02 02:33:35;;;;;;;1.55;0.90;;;;;;;22.93;42.04;102079.03;5067677;28;20025;-61
2022/07/02 02:36:00;;;;;;;2.08;1.20;;;;;;;22.71;41.99;102053.38;5067521;28;20016;-61
2022/07/02 02:38:26;;;;;;;2.00;1.05;;;;;;;22.92;42.11;102081.94;5067893;28;20028;-61
2022/07/02 02:40:51;;;;;;;1.63;0.93;;;;;;;22.91;42.14;102080.25;5067311;28;20412;-61
2022/07/02 02:43:16;;;;;;;2.30;1.35;;;;;;;22.87;41.93;102068.84;5067260;28;20053;-61
2022/07/02 02:45:42;;;;;;;1.77;1.10;;;;;;;22.70;41.97;102051.69;5066260;28;20082;-61
2022/07/02 02:48:07;;;;;;;1.63;1.05;;;;;;;22.89;42.17;102082.22;5067421;28;20032;-61
2022/07/02 02:50:32;;;;;;;1.88;0.93;;;;;;;22.86;42.20;102080.72;5065771;28;20029;-61
2022/07/02 02:52:58;;;;;;;1.75;0.93;;;;;;;22.87;42.04;102082.41;5049243;28;20091;-61
2022/07/02 02:55:23;;;;;;;3.13;1.40;;;;;;;22.86;42.05;102078.00;5066616;28;20052;-61
2022/07/02 02:57:48;;;;;;;2.40;1.23;;;;;;;22.83;41.87;102077.47;5066046;28;20484;-61
2022/07/02 03:00:14;;;;;;;2.65;0.93;;;;;;;22.84;42.06;102077.31;5067019;28;20083;-61
2022/07/02 03:02:39;;;;;;;1.48;0.80;;;;;;;22.85;41.87;102086.28;5065600;28;20030;-61
2022/07/02 03:05:05;;;;;;;1.58;1.02;;;;;;;22.84;42.18;102090.03;5066934;28;20020;-61
2022/07/02 03:07:30;;;;;;;3.65;1.52;;;;;;;22.83;41.89;102088.34;5067036;28;20044;-61
2022/07/02 03:09:56;;;;;;;3.03;1.35;;;;;;;22.65;41.89;102067.63;5067949;28;20032;-61
2022/07/02 03:12:21;;;;;;;3.28;1.27;;;;;;;22.58;41.70;102063.88;5086643;28;20028;-61
2022/07/02 03:14:46;;;;;;;2.35;1.30;;;;;;;22.82;41.92;102101.03;5086079;28;20028;-61
2022/07/02 03:17:11;;;;;;;2.80;1.60;;;;;;;22.76;41.96;102093.56;5086809;28;20021;-61
2022/07/02 03:19:37;;;;;;;1.52;1.02;;;;;;;22.76;42.20;102098.13;5085779;28;20020;-61
2022/07/02 03:22:02;;;;;;;2.63;1.48;;;;;;;22.79;42.05;102101.38;5086136;28;20424;-61
2022/07/02 03:24:27;;;;;;;1.67;1.20;;;;;;;22.78;42.00;102098.84;5086631;28;20107;-61
2022/07/02 03:26:53;;;;;;;2.47;1.17;;;;;;;22.52;41.91;102067.25;5085375;28;20028;-61
2022/07/02 03:29:18;;;;;;;1.40;1.00;;;;;;;22.56;41.93;102073.19;5086757;28;20024;-61
2022/07/02 03:31:43;;;;;;;2.97;1.58;;;;;;;22.58;42.06;102069.28;5086511;28;20493;-61
2022/07/02 03:34:08;;;;;;;1.50;1.25;;;;;;;22.75;41.92;102102.72;5085543;28;20027;-61
2022/07/02 03:36:34;;;;;;;1.77;1.00;;;;;;;22.73;41.98;102109.34;5085963;28;20047;-61
2022/07/02 03:38:59;;;;;;;2.78;1.35;;;;;;;22.50;41.95;102076.53;5086680;28;20182;-61
2022/07/02 03:41:24;;;;;;;2.17;1.33;;;;;;;22.68;41.90;102107.97;5084702;28;20045;-61
2022/07/02 03:43:50;;;;;;;2.03;1.35;;;;;;;22.47;41.99;102077.69;5085962;28;20428;-61
2022/07/02 03:46:16;;;;;;;2.90;1.33;;;;;;;22.71;42.16;102118.44;5086455;28;20028;-61
2022/07/02 03:48:42;;;;;;;2.95;1.13;;;;;;;22.70;41.92;102116.75;5086110;28;20032;-61
2022/07/02 03:51:07;;;;;;;2.42;1.75;;;;;;;22.70;42.05;102119.47;5085755;28;20025;-61
2022/07/02 03:53:32;;;;;;;2.15;1.05;;;;;;;22.70;41.97;102115.91;5085881;28;20024;-61
2022/07/02 03:55:57;;;;;;;2.92;1.17;;;;;;;22.68;41.92;102107.97;5086291;28;20115;-61
2022/07/02 03:58:23;;;;;;;2.92;1.15;;;;;;;22.67;41.95;102114.38;5086326;28;20035;-61
2022/07/02 04:00:48;;;;;;;2.25;1.20;;;;;;;22.67;42.08;102108.94;5084997;28;20060;-61
2022/07/02 04:03:13;;;;;;;1.75;1.02;;;;;;;22.65;42.00;102107.44;5086161;28;20050;-61
2022/07/02 04:05:38;;;;;;;1.77;1.30;;;;;;;22.58;42.04;102104.53;5084382;28;20021;-61
2022/07/02 04:08:04;;;;;;;2.03;1.23;;;;;;;22.63;41.96;102114.88;5084965;28;20586;-61
2022/07/02 04:10:29;;;;;;;2.38;1.13;;;;;;;22.46;42.04;102097.69;5077376;28;20017;-61
2022/07/02 04:12:54;;;;;;;3.17;1.30;;;;;;;22.64;41.86;102124.69;5065249;28;20025;-61
2022/07/02 04:15:20;;;;;;;2.38;1.17;;;;;;;22.64;42.01;102124.69;5066029;28;20052;-61
2022/07/02 04:17:45;;;;;;;1.75;1.30;;;;;;;22.61;42.11;102116.91;5065566;28;20560;-61
2022/07/02 04:20:10;;;;;;;3.08;1.40;;;;;;;22.42;42.27;102085.47;5047654;28;20025;-61
2022/07/02 04:22:36;;;;;;;1.48;0.90;;;;;;;22.63;42.05;102117.56;5065175;28;20115;-60
2022/07/02 04:25:01;;;;;;;1.55;1.20;;;;;;;22.61;42.28;102120.47;5065638;28;20029;-61
2022/07/02 04:27:26;;;;;;;2.67;1.17;;;;;;;22.64;42.03;102124.69;5064075;28;20025;-61
2022/07/02 04:29:52;;;;;;;2.90;1.45;;;;;;;22.61;42.08;102120.47;5047978;28;20116;-60
2022/07/02 04:32:17;;;;;;;2.75;1.33;;;;;;;22.44;42.17;102088.91;5063918;28;20032;-60
2022/07/02 04:34:42;;;;;;;2.10;1.08;;;;;;;22.29;42.31;102075.09;5065780;28;20052;-60
2022/07/02 04:37:07;;;;;;;1.90;1.23;;;;;;;22.60;42.31;102124.19;5065264;28;20466;-61
2022/07/02 04:39:33;;;;;;;2.38;1.10;;;;;;;22.60;42.22;102118.78;5065379;28;20067;-61
2022/07/02 04:41:58;;;;;;;3.28;1.45;;;;;;;22.60;42.18;102124.19;5064656;28;20051;-60
2022/07/02 04:44:24;;;;;;;1.80;1.20;;;;;;;22.40;42.16;102092.94;5064023;28;20029;-61
2022/07/02 04:46:50;;;;;;;2.00;1.08;;;;;;;22.35;42.39;102098.00;5065177;28;20033;-60
2022/07/02 04:49:15;;;;;;;2.97;1.17;;;;;;;22.60;42.05;102129.63;5065784;28;20557;-61
2022/07/02 04:51:40;;;;;;;2.03;0.98;;;;;;;22.59;42.40;102133.31;5063419;28;20028;-61
2022/07/02 04:54:05;;;;;;;2.55;1.40;;;;;;;22.60;42.56;102134.16;5063765;28;20032;-61
2022/07/02 04:56:31;;;;;;;2.03;1.10;;;;;;;22.53;42.28;102116.88;5065228;28;20017;-61
2022/07/02 04:58:56;;;;;;;2.35;1.10;;;;;;;22.60;42.40;102134.16;5065388;28;20029;-61
2022/07/02 05:01:23;;;;;;;1.52;1.10;;;;;;;22.59;42.46;102133.31;5064924;28;20033;-61
2022/07/02 05:03:49;;;;;;;2.13;1.13;;;;;;;22.54;42.39;102130.25;5063050;28;20031;-61
2022/07/02 05:06:15;;;;;;;4.25;1.35;;;;;;;22.59;42.55;102138.75;5060064;28;20053;-61
2022/07/02 05:08:40;;;;;;;3.17;1.67;;;;;;;22.55;42.64;102128.38;5045014;28;20033;-61
2022/07/02 05:11:05;;;;;;;5.00;1.45;;;;;;;22.59;42.40;102124.34;5084167;28;20029;-61
2022/07/02 05:13:31;;;;;;;2.63;1.05;;;;;;;22.59;42.24;102122.47;5084439;28;20027;-59
2022/07/02 05:15:56;;;;;;;3.42;1.23;;;;;;;22.59;42.84;102121.63;5085061;28;20024;-59
2022/07/02 05:18:23;;;;;;;1.70;1.23;;;;;;;22.60;42.52;102126.91;5086671;28;20044;-60
2022/07/02 05:20:48;;;;;;;1.50;1.10;;;;;;;22.56;42.30;102124.69;5088595;28;20028;-60
2022/07/02 05:23:14;;;;;;;2.92;1.50;;;;;;;22.41;42.52;102105.47;5088519;28;20036;-60
2022/07/02 05:25:39;;;;;;;2.53;1.10;;;;;;;22.60;42.40;102131.44;5088947;28;20023;-60
2022/07/02 05:28:05;;;;;;;1.98;1.10;;;;;;;22.59;42.70;102133.31;5088698;28;20094;-60
2022/07/02 05:30:30;;;;;;;2.35;1.05;;;;;;;22.60;42.71;102136.88;5087929;28;20027;-61
2022/07/02 05:32:55;;;;;;;2.05;1.30;;;;;;;22.60;42.67;102135.03;5087063;28;20029;-60
2022/07/02 05:35:20;;;;;;;3.05;1.00;;;;;;;22.59;42.67;102129.75;5088506;28;20035;-61
2022/07/02 05:37:46;;;;;;;1.65;0.90;;;;;;;22.60;42.30;102142.28;5088862;28;20039;-61
2022/07/02 05:40:11;;;;;;;2.05;0.98;;;;;;;22.47;42.48;102123.78;5087447;28;20464;-60
2022/07/02 05:42:36;;;;;;;1.55;1.15;;;;;;;22.61;42.45;102144.88;5088181;28;20043;-60
2022/07/02 05:45:02;;;;;;;3.55;1.05;;;;;;;22.61;42.23;102153.00;5087512;28;20055;-60
2022/07/02 05:47:27;;;;;;;2.85;1.20;;;;;;;22.61;42.24;102153.00;5088419;28;20035;-61
2022/07/02 05:49:53;;;;;;;1.60;0.88;;;;;;;22.43;42.30;102117.88;5087485;28;20028;-60
2022/07/02 05:52:19;;;;;;;2.70;1.15;;;;;;;22.43;42.26;102120.56;5087543;28;20497;-60
2022/07/02 05:54:45;;;;;;;2.00;0.90;;;;;;;22.59;42.43;102146.88;5088431;28;20032;-60
2022/07/02 05:57:10;;;;;;;1.55;0.95;;;;;;;22.56;42.61;102147.22;5086809;28;20026;-60
2022/07/02 05:59:38;;;;;;;2.03;0.82;;;;;;;22.58;42.32;102144.34;5088337;28;20033;-60
2022/07/02 06:02:04;;;;;;;1.75;0.80;;;;;;;22.44;42.30;102134.97;5086507;28;20079;-60
2022/07/02 06:04:29;;;;;;;3.80;1.20;;;;;;;22.63;42.38;102160.94;5088288;28;20302;-60
2022/07/02 06:09:39;;;;;;;2.47;1.45;;;;;;;22.63;42.28;102160.94;5086835;28;20314;-60
2022/07/02 06:12:05;;;;;;;2.47;0.80;;;;;;;22.63;42.40;102158.25;5067445;28;20025;-60
2022/07/02 06:14:30;;;;;;;1.42;0.90;;;;;;;22.56;42.23;102154.50;5066880;28;20036;-60
2022/07/02 06:16:55;;;;;;;2.78;0.70;;;;;;;22.62;42.26;102165.53;5068009;28;20024;-60
2022/07/02 06:19:20;;;;;;;2.13;0.85;;;;;;;22.61;42.28;102161.13;5068129;28;20025;-60
2022/07/02 06:21:46;;;;;;;2.20;1.55;;;;;;;22.45;42.51;102133.94;5067444;28;20044;-61
2022/07/02 06:24:11;;;;;;;3.17;1.02;;;;;;;22.64;42.40;102168.06;5066529;28;20498;-60
2022/07/02 06:26:37;;;;;;;1.90;0.85;;;;;;;22.43;42.06;102133.28;5067577;28;20032;-61
2022/07/02 06:29:02;;;;;;;1.17;0.70;;;;;;;22.40;42.43;102128.16;5048536;28;20074;-61
2022/07/02 06:31:27;;;;;;;1.50;0.95;;;;;;;22.64;42.33;102177.06;5067529;28;20040;-61
2022/07/02 06:33:53;;;;;;;1.30;0.70;;;;;;;22.63;42.39;102179.94;5066292;28;20055;-61
2022/07/02 06:36:22;;;;;;;2.65;0.70;;;;;;;22.61;42.53;102177.41;5066073;28;20461;-61
2022/07/02 06:38:49;;;;;;;2.60;0.70;;;;;;;22.61;42.20;102174.69;5067316;28;20071;-61
2022/07/02 06:43:58;;;;;;;0.95;0.60;;;;;;;22.64;42.46;102182.50;5067193;28;20040;-61
2022/07/02 06:46:23;;;;;;;2.63;0.93;;;;;;;22.61;42.57;102173.84;5066038;28;20037;-61
2022/07/02 06:48:48;;;;;;;2.63;0.98;;;;;;;22.64;42.22;102176.19;5067185;28;20027;-61
2022/07/02 06:51:14;;;;;;;3.10;1.08;;;;;;;22.45;42.26;102156.47;5066957;28;20029;-61
2022/07/02 06:53:39;;;;;;;2.15;1.00;;;;;;;22.65;42.43;102189.63;5065632;28;20504;-61
2022/07/02 06:56:04;;;;;;;1.65;0.80;;;;;;;22.62;42.24;102183.66;5067262;28;20036;-61
2022/07/02 06:58:30;;;;;;;1.17;0.65;;;;;;;22.65;42.43;102195.03;5067143;28;20021;-61
2022/07/02 07:00:55;;;;;;;1.73;0.73;;;;;;;22.47;42.27;102164.44;5066511;28;20032;-61
2022/07/02 07:03:20;;;;;;;2.63;0.80;;;;;;;22.64;42.33;102196.06;5065337;28;20089;-61
2022/07/02 07:05:47;;;;;;;2.22;0.82;;;;;;;22.42;42.06;102159.50;5066759;28;20082;-61
2022/07/02 07:08:13;;;;;;;1.73;0.73;;;;;;;22.65;42.16;102200.44;5065912;28;20036;-61
2022/07/02 07:10:38;;;;;;;1.85;0.68;;;;;;;22.66;42.20;102204.00;5074750;28;20024;-61
2022/07/02 07:13:03;;;;;;;2.60;0.70;;;;;;;22.66;42.15;102204.84;5068274;28;20029;-61
2022/07/02 07:15:28;;;;;;;1.55;0.70;;;;;;;22.64;42.39;102206.91;5087123;28;20041;-61
2022/07/02 07:17:54;;;;;;;1.77;0.80;;;;;;;22.67;42.13;102220.09;5085427;28;20088;-61
2022/07/02 07:20:26;;;;;;;1.40;0.73;;;;;;;22.61;42.21;102199.06;5086491;28;20029;-61
2022/07/02 07:22:52;;;;;;;3.42;1.52;;;;;;;22.66;41.93;102218.41;5086468;28;20036;-61
2022/07/02 07:25:17;;;;;;;2.45;1.05;;;;;;;22.67;42.24;102211.97;5086811;28;20028;-61
2022/07/02 07:27:42;;;;;;;1.25;0.88;;;;;;;22.67;42.13;102219.25;5068615;28;20028;-61
2022/07/02 07:30:08;;;;;;;1.73;0.60;;;;;;;22.70;42.22;102217.09;5086728;28;20032;-61
2022/07/02 07:32:33;;;;;;;3.78;0.82;;;;;;;22.70;42.48;102214.38;5086288;28;20024;-61
2022/07/02 07:34:58;;;;;;;1.80;0.88;;;;;;;22.72;42.42;102208.78;5086692;28;20036;-61
2022/07/02 07:37:24;;;;;;;2.97;0.70;;;;;;;22.73;42.40;102215.06;5085817;28;20040;-61
2022/07/02 07:39:49;;;;;;;1.77;0.82;;;;;;;22.50;42.29;102171.41;5085972;28;20118;-61
2022/07/02 07:42:14;;;;;;;2.78;0.80;;;;;;;22.75;42.27;102205.75;5085626;28;20529;-61
2022/07/02 07:44:39;;;;;;;1.73;0.90;;;;;;;22.75;42.04;102210.31;5086548;28;20019;-61
2022/07/02 07:47:05;;;;;;;2.53;1.15;;;;;;;22.54;42.23;102167.34;5086098;28;20362;-61
2022/07/02 07:49:30;;;;;;;1.88;0.68;;;;;;;22.76;41.68;102209.31;5086321;28;20028;-61
2022/07/02 07:51:55;;;;;;;3.17;0.77;;;;;;;22.77;41.89;102201.03;5084324;28;20087;-61
2022/07/02 07:54:20;;;;;;;1.75;0.50;;;;;;;22.78;41.97;102202.72;5086090;28;20028;-61
2022/07/02 07:56:46;;;;;;;1.40;0.60;;;;;;;22.72;42.05;102189.78;5086193;28;20025;-61
2022/07/02 07:59:11;;;;;;;1.83;0.65;;;;;;;22.59;41.93;102171.25;5086033;28;20037;-61
2022/07/02 08:01:36;;;;;;;1.05;0.60;;;;;;;22.61;41.62;102165.69;5085672;28;20096;-60
2022/07/02 08:04:03;;;;;;;2.15;0.70;;;;;;;22.82;41.47;102197.81;5085923;28;20157;-60
2022/07/02 08:06:28;;;;;;;1.98;0.88;;;;;;;22.84;41.38;102204.75;5084419;28;20097;-60
2022/07/02 08:08:53;;;;;;;1.33;0.68;;;;;;;22.86;41.40;102202.75;5085910;28;20032;-60
2022/07/02 08:11:18;;;;;;;1.33;0.73;;;;;;;22.59;41.45;102154.16;5071859;28;20088;-61
2022/07/02 08:13:43;;;;;;;1.27;0.60;;;;;;;22.67;41.65;102165.03;5065435;28;20486;-60
2022/07/02 08:16:09;;;;;;;1.67;1.30;;;;;;;22.85;41.37;102187.50;5064692;28;20021;-60
2022/07/02 08:18:34;;;;;;;1.30;0.60;;;;;;;22.89;41.58;102194.25;5065672;28;20023;-60
2022/07/02 08:21:00;;;;;;;1.52;0.60;;;;;;;22.90;41.29;102193.31;5065292;28;20051;-60
2022/07/02 08:23:26;;;;;;;2.45;0.70;;;;;;;22.73;41.43;102158.97;5064321;28;20025;-60
2022/07/02 08:25:54;;;;;;;2.33;0.80;;;;;;;22.93;41.42;102187.53;5064162;28;20029;-60
2022/07/02 08:28:19;;;;;;;1.63;1.00;;;;;;;22.73;41.43;102142.72;5065391;28;20493;-60
2022/07/02 08:30:45;;;;;;;2.53;0.52;;;;;;;22.93;41.53;102182.09;5065299;28;20033;-60
2022/07/02 08:33:12;;;;;;;3.20;1.10;;;;;;;22.94;41.30;102178.41;5046978;28;20021;-60
2022/07/02 08:35:38;;;;;;;1.23;0.70;;;;;;;22.94;41.35;102174.84;5063886;28;20474;-60
2022/07/02 08:38:03;;;;;;;1.60;0.75;;;;;;;22.81;41.34;102155.41;5065391;28;20045;-60
2022/07/02 08:40:29;;;;;;;1.27;0.63;;;;;;;23.02;41.34;102180.28;5063560;28;20045;-60
2022/07/02 08:42:55;;;;;;;1.42;0.65;;;;;;;23.00;41.09;102166.03;5063447;28;20037;-60
2022/07/02 08:45:21;;;;;;;1.02;0.77;;;;;;;23.04;40.96;102170.13;5064124;28;20121;-60
2022/07/02 08:47:48;;;;;;;1.75;0.60;;;;;;;22.83;41.08;102134.44;5063754;28;20502;-61
2022/07/02 08:50:13;;;;;;;1.10;0.50;;;;;;;23.06;41.14;102173.50;5063899;28;20405;-59
2022/07/02 08:52:40;;;;;;;0.85;0.50;;;;;;;22.85;40.94;102138.69;5064014;28;20514;-61
2022/07/02 08:55:05;;;;;;;2.50;0.80;;;;;;;23.09;41.11;102175.88;5063989;28;20563;-60
2022/07/02 08:57:31;;;;;;;0.93;0.60;;;;;;;23.10;40.95;102174.03;5063938;28;20052;-60
2022/07/02 08:59:57;;;;;;;1.63;0.60;;;;;;;22.92;41.52;102138.88;5047188;28;20032;-60
2022/07/02 09:02:25;;;;;;;1.55;0.93;;;;;;;23.12;41.19;102169.28;5063324;28;20029;-60
2022/07/02 09:04:50;;;;;;;1.67;0.57;;;;;;;22.90;41.14;102130.94;5063879;28;20029;-60
2022/07/02 09:07:17;;;;;;;1.42;0.52;;;;;;;23.13;41.21;102163.69;5063548;28;20040;-60
2022/07/02 09:09:43;;;;;;;1.70;0.60;;;;;;;23.15;41.34;102164.38;5064058;28;20055;-60
2022/07/02 09:12:13;;;;;;;2.40;0.73;;;;;;;23.17;41.33;102169.63;5083266;28;20048;-60
2022/07/02 09:14:40;;;;;;;1.58;0.60;;;;;;;23.17;41.41;102158.78;5084979;28;20023;-60
2022/07/02 09:17:09;;;;;;;1.55;0.40;;;;;;;23.00;41.29;102136.19;5083613;28;20372;-60
2022/07/02 09:19:35;;;;;;;2.53;0.50;;;;;;;23.19;41.25;102160.31;5083819;28;20024;-60
2022/07/02 09:22:01;;;;;;;1.45;0.40;;;;;;;22.82;41.43;102097.50;5082996;28;20028;-60
2022/07/02 09:24:28;;;;;;;1.50;0.40;;;;;;;23.19;41.46;102154.03;5083703;28;20032;-60
2022/07/02 09:27:00;;;;;;;0.82;0.43;;;;;;;23.23;41.88;102149.13;5084501;28;20025;-60
2022/07/02 09:29:26;;;;;;;2.40;0.63;;;;;;;23.24;42.05;102145.41;5083657;28;20036;-60
2022/07/02 09:31:51;;;;;;;1.20;0.40;;;;;;;23.05;42.32;102122.13;5084776;28;20029;-60
2022/07/02 09:34:26;;;;;;;2.30;0.50;;;;;;;23.05;42.07;102112.13;5083632;28;20039;-61
2022/07/02 09:36:52;;;;;;;0.90;0.40;;;;;;;23.03;42.07;102105.19;5083042;28;20048;-60
2022/07/02 09:39:30;;;;;;;1.63;0.60;;;;;;;23.19;42.17;102126.91;5083598;28;20033;-60
2022/07/02 09:41:59;;;;;;;0.95;0.50;;;;;;;23.26;42.38;102133.34;5084077;28;20154;-60
2022/07/02 09:44:28;;;;;;;0.85;0.50;;;;;;;23.27;42.22;102135.03;5084687;28;20533;-60
2022/07/02 09:46:54;;;;;;;0.68;0.55;;;;;;;23.31;42.33;102138.28;5083200;28;20024;-61
2022/07/02 09:49:19;;;;;;;2.30;0.70;;;;;;;23.32;42.39;102138.13;5084693;28;20025;-60
2022/07/02 09:51:48;;;;;;;2.10;0.70;;;;;;;23.14;42.33;102105.69;5083858;28;20032;-61
2022/07/02 09:54:22;;;;;;;5.55;0.65;;;;;;;23.35;42.42;102136.94;5083269;28;20062;-61
2022/07/02 09:56:54;;;;;;;0.85;0.50;;;;;;;23.13;42.57;102101.28;5083182;28;20038;-59
2022/07/02 09:59:20;;;;;;;0.75;0.38;;;;;;;23.16;42.34;102108.25;5083232;28;20016;-60
2022/07/02 10:01:45;;;;;;;1.25;0.47;;;;;;;23.34;42.40;102143.38;5084146;28;20054;-60
2022/07/02 10:04:10;;;;;;;1.30;0.40;;;;;;;23.28;42.56;102133.19;5086902;28;20054;-60
2022/07/02 10:06:36;;;;;;;2.17;0.95;;;;;;;23.33;42.67;102142.53;5069747;28;20028;-60
2022/07/02 10:09:01;;;;;;;1.15;0.50;;;;;;;23.16;42.47;102102.84;5087051;28;20028;-60
2022/07/02 10:11:27;;;;;;;0.98;0.52;;;;;;;23.34;42.72;102127.94;5072758;28;20469;-59
2022/07/02 10:13:54;;;;;;;1.80;0.50;;;;;;;23.31;42.67;102120.13;5066551;28;20029;-60
2022/07/02 10:16:20;;;;;;;2.10;0.60;;;;;;;23.35;42.74;102143.19;5066590;28;20032;-60
2022/07/02 10:18:46;;;;;;;2.20;0.60;;;;;;;23.33;42.53;102128.13;5066853;28;20489;-60
2022/07/02 10:21:13;;;;;;;0.70;0.40;;;;;;;23.34;42.30;102125.22;5067803;28;20095;-60
2022/07/02 10:23:39;;;;;;;1.70;0.45;;;;;;;23.34;42.81;102130.66;5066558;28;20631;-60
2022/07/02 10:26:05;;;;;;;0.93;0.45;;;;;;;23.34;42.54;102121.66;5066598;28;20025;-61
2022/07/02 10:28:30;;;;;;;1.48;0.65;;;;;;;23.35;42.66;102124.19;5067600;28;20441;-60
2022/07/02 10:30:56;;;;;;;1.42;0.50;;;;;;;23.34;42.56;102119.78;5066471;28;20025;-60
2022/07/02 10:33:27;;;;;;;1.70;0.55;;;;;;;23.38;42.40;102112.16;5066215;28;20024;-60
2022/07/02 10:35:52;;;;;;;1.63;0.65;;;;;;;23.22;42.86;102088.59;5065940;28;20024;-60
2022/07/02 10:38:29;;;;;;;1.98;0.40;;;;;;;23.40;42.58;102119.09;5066282;28;20027;-60
2022/07/02 10:40:54;;;;;;;1.80;0.60;;;;;;;23.44;42.60;102122.34;5067113;28;20041;-60
2022/07/02 10:43:19;;;;;;;2.55;0.47;;;;;;;23.47;42.59;102110.31;5065892;28;20413;-60
2022/07/02 10:45:45;;;;;;;0.98;0.40;;;;;;;23.49;42.63;102110.97;5049652;28;20028;-60
2022/07/02 10:48:12;;;;;;;0.80;0.35;;;;;;;23.51;42.67;102100.81;5066078;28;20063;-60
2022/07/02 10:50:39;;;;;;;1.33;0.50;;;;;;;23.50;42.43;102096.41;5065612;28;20081;-60
2022/07/02 10:53:12;;;;;;;0.30;0.30;;;;;;;23.54;42.43;102104.03;5048842;28;20029;-60
2022/07/02 10:55:38;;;;;;;2.00;0.45;;;;;;;23.55;42.63;102102.16;5066229;28;20028;-60
2022/07/02 10:58:05;;;;;;;1.13;0.50;;;;;;;23.56;42.54;102101.13;5065741;28;20047;-60
2022/07/02 11:00:36;;;;;;;1.15;0.45;;;;;;;23.58;42.43;102094.53;5066166;28;20191;-61
2022/07/02 11:03:21;;;;;;;1.08;0.57;;;;;;;23.59;42.54;102089.94;5066604;28;20020;-61
2022/07/02 11:06:39;;;;;;;1.15;0.55;;;;;;;23.58;42.13;102088.25;5065676;28;20029;-60
2022/07/02 11:09:05;;;;;;;2.15;0.50;;;;;;;23.58;42.22;102088.25;5053888;28;20037;-60
2022/07/02 11:11:40;;;;;;;1.35;0.30;;;;;;;23.58;42.35;102091.81;5080862;28;20029;-60
2022/07/02 11:14:16;;;;;;;1.13;0.52;;;;;;;23.41;42.54;102050.25;5086729;28;20123;-60
2022/07/02 11:16:47;;;;;;;0.80;0.77;;;;;;;23.59;42.53;102077.22;5085142;28;20017;-60
2022/07/02 11:19:13;;;;;;;1.92;0.98;;;;;;;23.62;42.64;102081.47;5085650;28;20020;-60
2022/07/02 11:21:40;;;;;;;1.33;0.40;;;;;;;23.62;42.57;102078.75;5085124;28;20117;-59
2022/07/02 11:24:05;;;;;;;1.52;0.60;;;;;;;23.57;42.53;102068.38;5085224;28;20028;-60
2022/07/02 11:26:31;;;;;;;1.00;0.45;;;;;;;23.63;42.32;102078.56;5085268;28;20082;-60
2022/07/02 11:29:02;;;;;;;0.82;0.50;;;;;;;23.64;42.53;102073.97;5086633;28;20032;-61